Newcomb, New York
Current Conditions -  °F | °C
As of 3:08 PM on Sunday 23 Nov 2014 (Local Time) from KSLK Reporting Station
Haze Haze  
Wind Chill: 42°   Ceiling: 2000
Heat Index: 42°   Visibility: 5mi
Dew Point: 40°   Wind: 3mph
Humidity: 92%   Direction: 180°S
Pressure: 29.98"   Gusts: NA
Location:  43.97°N, 74.16°W
Report Text: KSLK 232008Z AUTO 18003KT 5SM BR OVC020 06/04 A2998 RMK AO2 T00560044
Loading
Personal Weather Stations






























Interactive Weather Map New forecast layout! Learn more

10-Day Weather Forecast

Advertisements
Track Severe Weather on mobile